KMFI/MFI METAR and TAF weather

Enter ICAO airport designator
Station Type Date Time Source
KMFI METAR 2021/05/14 23:54 UTC NOAA

KMFI 142354Z AUTO 24009KT 10SM BKN085 17/M01 A3017 RMK AO2 SLP219 T01721011 10206 20172 56007


Station Type Date Time Source
KMFI Decoded METAR 2021/05/14 23:54 UTC NOAA

MARSHFIELD MUNICIPAL AIRPORT, WI, United States (KMFI) 44-38N 90-11W 379M
May 14, 2021 - 07:54 PM EDT / 2021.05.14 2354 UTC
Wind: from the WSW (240 degrees) at 10 MPH (9 KT):0
Visibility: 10 mile(s):0
Sky conditions: mostly cloudy
Temperature: 63.0 F (17.2 C)
Dew Point: 30.0 F (-1.1 C)
Relative Humidity: 28%
Pressure (altimeter): 30.17 in. Hg (1021 hPa)
Pressure tendency: 0.02 inches (0.7 hPa) lower than three hours ago
ob: KMFI 142354Z AUTO 24009KT 10SM BKN085 17/M01 A3017 RMK AO2 SLP219 T01721011 10206 20172 56007
cycle: 0

Station Type Date Time Source
KMFI TAF UTC NOAA

Error!

Example: see airport list